Time;durP1;ratioP1;P1;durP2;ratioP2;P2;SDS_P1;SDS_P2;PMS_P1;PMS_P2;Temp;Humidity;BMP_temperature;BMP_pressure;BME280_temperature;BME280_humidity;BME280_pressure;Samples;Min_cycle;Max_cycle;Signal;HPM_P1;HPM_P2
2022/12/17 13:06:11;;;;;;;;;;;-0.20;99.90;;;;;;5071660;28;19982;-70
2022/12/17 13:08:38;;;;;;;;;;;-0.10;99.90;;;;;;5068191;28;20064;-75
2022/12/17 13:11:13;;;;;;;;;;;-0.10;99.90;;;;;;5066985;28;19981;-73
2022/12/17 13:13:54;;;;;;;;;;;-0.20;99.90;;;;;;5065422;28;19928;-77
2022/12/17 13:16:29;;;;;;;;;;;-0.30;99.90;;;;;;5067209;28;20334;-74
2022/12/17 13:19:01;;;;;;;;;;;-0.40;99.90;;;;;;5068356;28;19932;-72
2022/12/17 13:21:28;;;;;;;;;;;-0.50;99.90;;;;;;5069390;28;19955;-73
2022/12/17 13:23:55;;;;;;;;;;;-0.60;99.90;;;;;;5065970;28;19968;-74
2022/12/17 13:26:23;;;;;;;;;;;-0.60;99.90;;;;;;5066106;28;20018;-70
2022/12/17 13:28:58;;;;;;;;;;;-0.70;99.90;;;;;;5065990;28;19931;-71
2022/12/17 13:31:28;;;;;;;;;;;-0.80;99.90;;;;;;5062273;28;20180;-72
2022/12/17 13:33:59;;;;;;;;;;;-0.80;99.90;;;;;;5065465;28;20016;-70
2022/12/17 13:36:29;;;;;;;;;;;-0.80;99.90;;;;;;5069794;28;19993;-68
2022/12/17 13:39:00;;;;;;;;;;;-0.90;99.90;;;;;;5065023;28;19932;-71
2022/12/17 13:41:28;;;;;;;;;;;-0.80;99.90;;;;;;5069329;28;19932;-71
2022/12/17 13:43:57;;;;;;;;;;;-0.80;99.90;;;;;;5068330;28;20414;-71
2022/12/17 13:46:24;;;;;;;;;;;-0.80;99.90;;;;;;5066495;28;19932;-74
2022/12/17 13:48:53;;;;;;;;;;;-0.90;99.90;;;;;;5068153;28;19954;-70
2022/12/17 13:51:21;;;;;;;;;;;-0.80;99.90;;;;;;5065362;28;20377;-71
2022/12/17 13:53:51;;;;;;;;;;;-0.80;99.90;;;;;;5065316;28;19988;-72
2022/12/17 13:56:21;;;;;;;;;;;-0.90;99.90;;;;;;5065115;28;19967;-73
2022/12/17 13:58:50;;;;;;;;;;;-0.90;99.90;;;;;;5061913;28;19939;-71
2022/12/17 14:01:17;;;;;;;;;;;-0.90;99.90;;;;;;5069420;28;19994;-72
2022/12/17 14:03:49;;;;;;;;;;;-1.00;99.90;;;;;;5065718;28;19959;-72
2022/12/17 14:06:17;;;;;;;;;;;-1.00;99.90;;;;;;5063850;28;20722;-71
2022/12/17 14:08:44;;;;;;;;;;;-1.00;99.90;;;;;;5063564;28;19938;-71
2022/12/17 14:13:55;;;;;;;;;;;-1.20;99.90;;;;;;5061512;28;20200;-71
2022/12/17 14:16:22;;;;;;;;;;;-1.20;99.90;;;;;;5064401;28;19932;-72
2022/12/17 14:18:50;;;;;;;;;;;-1.30;99.90;;;;;;5064442;28;19932;-73
2022/12/17 14:21:19;;;;;;;;;;;-1.30;99.90;;;;;;5064704;28;19932;-73
2022/12/17 14:23:46;;;;;;;;;;;-1.30;99.90;;;;;;5066878;28;20216;-72
2022/12/17 14:26:13;;;;;;;;;;;-1.30;99.90;;;;;;5067957;28;20055;-73
2022/12/17 14:28:48;;;;;;;;;;;-1.40;99.90;;;;;;5063620;28;19939;-71
2022/12/17 14:31:22;;;;;;;;;;;-1.40;99.90;;;;;;5064972;28;19989;-75
2022/12/17 14:34:00;;;;;;;;;;;-1.50;99.90;;;;;;5063525;28;19971;-69
2022/12/17 14:36:28;;;;;;;;;;;-1.60;99.90;;;;;;5067978;28;19932;-72
2022/12/17 14:38:56;;;;;;;;;;;-1.60;99.90;;;;;;5064963;28;19939;-72
2022/12/17 14:44:17;;;;;;;;;;;-1.70;99.90;;;;;;5065268;28;19959;-72
2022/12/17 14:46:43;;;;;;;;;;;-1.70;99.90;;;;;;5066459;28;20460;-72
2022/12/17 14:49:15;;;;;;;;;;;-1.80;99.90;;;;;;5067287;28;19928;-72
2022/12/17 14:51:44;;;;;;;;;;;-1.80;99.90;;;;;;5064436;28;20021;-72
2022/12/17 14:54:18;;;;;;;;;;;-1.90;99.90;;;;;;5065707;28;20046;-73
2022/12/17 14:56:46;;;;;;;;;;;-1.90;99.90;;;;;;5066919;28;19928;-72
2022/12/17 14:59:23;;;;;;;;;;;-2.00;99.90;;;;;;5066636;28;19940;-73
2022/12/17 15:01:50;;;;;;;;;;;-2.00;99.90;;;;;;5062759;28;20391;-71
2022/12/17 15:04:17;;;;;;;;;;;-2.10;99.90;;;;;;5065015;28;19956;-72
2022/12/17 15:06:46;;;;;;;;;;;-2.10;99.90;;;;;;5067371;28;21843;-72
2022/12/17 15:09:13;;;;;;;;;;;-2.20;99.90;;;;;;5066461;28;20019;-72
2022/12/17 15:11:40;;;;;;;;;;;-2.20;99.90;;;;;;5067487;28;20358;-72
2022/12/17 15:14:06;;;;;;;;;;;-2.30;99.90;;;;;;5067737;28;20010;-72
2022/12/17 15:16:33;;;;;;;;;;;-2.30;99.90;;;;;;5065595;28;19932;-72
2022/12/17 15:19:00;;;;;;;;;;;-2.30;99.90;;;;;;5065702;28;19932;-70
2022/12/17 15:21:27;;;;;;;;;;;-2.40;99.90;;;;;;5066175;28;19932;-71
2022/12/17 15:23:55;;;;;;;;;;;-2.40;99.90;;;;;;5066760;28;20007;-72
2022/12/17 15:26:21;;;;;;;;;;;-2.50;99.90;;;;;;5066179;28;19929;-71
2022/12/17 15:28:48;;;;;;;;;;;-2.50;99.90;;;;;;5065180;28;20015;-72
2022/12/17 15:31:15;;;;;;;;;;;-2.60;99.90;;;;;;5066155;28;19934;-71
2022/12/17 15:33:42;;;;;;;;;;;-2.70;99.90;;;;;;5064690;28;19933;-71
2022/12/17 15:36:09;;;;;;;;;;;-2.70;99.90;;;;;;5067891;28;20023;-71
2022/12/17 15:38:36;;;;;;;;;;;-2.80;99.90;;;;;;5061123;28;19928;-71
2022/12/17 15:43:09;;;;;;;;;;;-2.80;99.90;;;;;;5064863;28;19932;-71
2022/12/17 15:43:51;;;;;;;;;;;-2.80;99.90;;;;;;5066399;28;19925;-72
2022/12/17 15:46:18;;;;;;;;;;;-2.80;99.90;;;;;;5065618;28;19939;-71
2022/12/17 15:48:44;;;;;;;;;;;-2.90;99.90;;;;;;5065165;28;19960;-69
2022/12/17 15:51:11;;;;;;;;;;;-2.90;99.90;;;;;;5065441;28;19932;-71
2022/12/17 15:53:38;;;;;;;;;;;-2.90;99.90;;;;;;5064989;28;19932;-69
2022/12/17 15:56:06;;;;;;;;;;;-3.00;99.90;;;;;;5067931;28;20023;-71
2022/12/17 15:58:33;;;;;;;;;;;-3.00;99.90;;;;;;5064913;28;19939;-71
2022/12/17 16:01:00;;;;;;;;;;;-3.00;99.90;;;;;;5067251;28;20468;-73
2022/12/17 16:03:26;;;;;;;;;;;-3.10;99.90;;;;;;5066460;28;19928;-72
2022/12/17 16:05:53;;;;;;;;;;;-3.10;99.90;;;;;;5061958;28;19924;-73
2022/12/17 16:08:20;;;;;;;;;;;-3.10;99.90;;;;;;5065684;28;19932;-72
2022/12/17 16:10:46;;;;;;;;;;;-3.20;99.90;;;;;;5070344;28;19928;-72
2022/12/17 16:13:15;;;;;;;;;;;-3.20;99.90;;;;;;5070419;28;20018;-72
2022/12/17 16:15:41;;;;;;;;;;;-3.20;99.90;;;;;;5073620;28;19990;-72
2022/12/17 16:18:08;;;;;;;;;;;-3.20;99.90;;;;;;5069332;28;19932;-72
2022/12/17 16:20:35;;;;;;;;;;;-3.20;99.90;;;;;;5070969;28;20405;-72
2022/12/17 16:23:02;;;;;;;;;;;-3.30;99.90;;;;;;5067013;28;20310;-72
2022/12/17 16:25:29;;;;;;;;;;;-3.30;99.90;;;;;;5066357;28;19985;-73
2022/12/17 16:27:55;;;;;;;;;;;-3.40;99.90;;;;;;5067189;28;20149;-72
2022/12/17 16:30:23;;;;;;;;;;;-3.40;99.90;;;;;;5068021;28;19943;-72
2022/12/17 16:32:50;;;;;;;;;;;-3.40;99.90;;;;;;5066308;28;20371;-71
2022/12/17 16:35:17;;;;;;;;;;;-3.50;99.90;;;;;;5067563;28;20240;-72
2022/12/17 16:37:44;;;;;;;;;;;-3.50;99.90;;;;;;5069569;28;19935;-72
2022/12/17 16:40:11;;;;;;;;;;;-3.50;99.90;;;;;;5065555;28;19932;-72
2022/12/17 16:42:38;;;;;;;;;;;-3.60;99.90;;;;;;5066046;28;19996;-72
2022/12/17 16:45:05;;;;;;;;;;;-3.60;99.90;;;;;;5067154;28;19932;-72
2022/12/17 16:47:33;;;;;;;;;;;-3.70;99.90;;;;;;5064804;28;20031;-70
2022/12/17 16:50:00;;;;;;;;;;;-3.80;99.90;;;;;;5067597;28;19935;-72
2022/12/17 16:52:27;;;;;;;;;;;-3.80;99.90;;;;;;5065850;28;19968;-72
2022/12/17 16:54:53;;;;;;;;;;;-3.90;99.90;;;;;;5066518;28;19938;-72
2022/12/17 16:57:20;;;;;;;;;;;-3.90;99.90;;;;;;5065345;28;20092;-71
2022/12/17 16:59:47;;;;;;;;;;;-4.00;99.90;;;;;;5063375;28;20804;-72
2022/12/17 17:02:14;;;;;;;;;;;-4.00;99.90;;;;;;5067209;28;19938;-73
2022/12/17 17:04:42;;;;;;;;;;;-3.90;99.90;;;;;;5065982;28;19940;-73
2022/12/17 17:07:09;;;;;;;;;;;-4.00;99.90;;;;;;5065138;28;19973;-73
2022/12/17 17:09:39;;;;;;;;;;;-4.00;99.90;;;;;;5067510;28;19976;-72
2022/12/17 17:12:07;;;;;;;;;;;-4.10;99.90;;;;;;5067461;28;19933;-74
2022/12/17 17:14:34;;;;;;;;;;;-4.20;99.90;;;;;;5068707;28;20288;-72
2022/12/17 17:17:01;;;;;;;;;;;-4.20;99.90;;;;;;5065064;28;19924;-72
2022/12/17 17:19:27;;;;;;;;;;;-4.20;99.90;;;;;;5066842;28;20393;-72
2022/12/17 17:21:55;;;;;;;;;;;-4.20;99.90;;;;;;5065115;28;20303;-72
2022/12/17 17:24:24;;;;;;;;;;;-4.20;99.90;;;;;;5063386;28;19939;-73
2022/12/17 17:26:51;;;;;;;;;;;-4.20;99.90;;;;;;5064949;28;20348;-72
2022/12/17 17:29:18;;;;;;;;;;;-4.10;99.90;;;;;;5065291;28;20070;-73
2022/12/17 17:31:45;;;;;;;;;;;-4.10;99.90;;;;;;5067929;28;19964;-71
2022/12/17 17:34:13;;;;;;;;;;;-4.10;99.90;;;;;;5066181;28;19932;-72
2022/12/17 17:36:40;;;;;;;;;;;-4.10;99.90;;;;;;5066385;28;20318;-72
2022/12/17 17:39:08;;;;;;;;;;;-4.00;99.90;;;;;;5062625;28;19924;-73
2022/12/17 17:41:35;;;;;;;;;;;-4.00;99.90;;;;;;5066109;28;19994;-72
2022/12/17 17:44:03;;;;;;;;;;;-3.90;99.90;;;;;;5063838;28;19932;-71
2022/12/17 17:46:30;;;;;;;;;;;-3.80;99.90;;;;;;5065338;28;19968;-72
2022/12/17 17:48:58;;;;;;;;;;;-3.80;99.90;;;;;;5057534;28;19931;-73
2022/12/17 17:51:26;;;;;;;;;;;-3.70;99.90;;;;;;5064682;28;20019;-73
2022/12/17 17:53:54;;;;;;;;;;;-3.80;99.90;;;;;;5062668;28;19940;-72
2022/12/17 17:56:24;;;;;;;;;;;-3.90;99.90;;;;;;5067613;28;19932;-74
2022/12/17 17:58:51;;;;;;;;;;;-3.90;99.90;;;;;;5062788;28;19932;-73
2022/12/17 18:01:18;;;;;;;;;;;-3.90;99.90;;;;;;5065996;28;19932;-73
2022/12/17 18:03:46;;;;;;;;;;;-3.80;99.90;;;;;;5067253;28;19930;-74
2022/12/17 18:06:13;;;;;;;;;;;-3.90;99.90;;;;;;5068506;28;19939;-73
2022/12/17 18:08:40;;;;;;;;;;;-3.90;99.90;;;;;;5068803;28;20302;-73
2022/12/17 18:11:08;;;;;;;;;;;-3.80;99.90;;;;;;5066318;28;19928;-72
2022/12/17 18:16:21;;;;;;;;;;;-3.80;99.90;;;;;;5066225;28;20153;-72
2022/12/17 18:18:47;;;;;;;;;;;-3.70;99.90;;;;;;5066651;28;20019;-72
2022/12/17 18:21:15;;;;;;;;;;;-3.60;99.90;;;;;;5066839;28;20024;-72
2022/12/17 18:23:41;;;;;;;;;;;-3.50;99.90;;;;;;5072811;28;19925;-72
2022/12/17 18:26:09;;;;;;;;;;;-3.60;99.90;;;;;;5078456;28;19935;-72
2022/12/17 18:28:38;;;;;;;;;;;-3.70;99.90;;;;;;5073198;28;20049;-72
2022/12/17 18:31:06;;;;;;;;;;;-3.70;99.90;;;;;;5087986;28;20011;-70
2022/12/17 18:33:32;;;;;;;;;;;-3.80;99.90;;;;;;5083302;28;19930;-71
2022/12/17 18:35:59;;;;;;;;;;;-3.80;99.90;;;;;;5082664;28;20014;-72
2022/12/17 18:38:26;;;;;;;;;;;-3.80;99.90;;;;;;5076206;28;20015;-71
2022/12/17 18:40:52;;;;;;;;;;;-3.80;99.90;;;;;;5066288;28;19934;-72
2022/12/17 18:43:24;;;;;;;;;;;-3.60;99.90;;;;;;5062429;28;20013;-72
2022/12/17 18:45:52;;;;;;;;;;;-3.60;99.90;;;;;;5065978;28;19931;-72
2022/12/17 18:48:19;;;;;;;;;;;-3.60;99.90;;;;;;5065007;28;20015;-72
2022/12/17 18:50:46;;;;;;;;;;;-3.60;99.90;;;;;;5066261;28;19935;-72
2022/12/17 18:53:12;;;;;;;;;;;-3.60;99.90;;;;;;5066539;28;19924;-72
2022/12/17 18:55:39;;;;;;;;;;;-3.60;99.90;;;;;;5067556;28;19997;-72
2022/12/17 18:58:07;;;;;;;;;;;-3.50;99.90;;;;;;5065415;28;20387;-72
2022/12/17 19:00:34;;;;;;;;;;;-3.60;99.90;;;;;;5068701;28;19975;-71
2022/12/17 19:03:03;;;;;;;;;;;-3.50;99.90;;;;;;5067026;28;19932;-72
2022/12/17 19:05:29;;;;;;;;;;;-3.50;99.90;;;;;;5066726;28;19931;-72
2022/12/17 19:07:56;;;;;;;;;;;-3.50;99.90;;;;;;5065040;28;19928;-72
2022/12/17 19:10:23;;;;;;;;;;;-3.50;99.90;;;;;;5065063;28;20383;-72
2022/12/17 19:12:49;;;;;;;;;;;-3.60;99.90;;;;;;5065096;28;19939;-72
2022/12/17 19:15:16;;;;;;;;;;;-3.60;99.90;;;;;;5065504;28;19934;-71
2022/12/17 19:17:43;;;;;;;;;;;-3.70;99.90;;;;;;5065472;28;22346;-72
2022/12/17 19:20:11;;;;;;;;;;;-3.80;99.90;;;;;;5065806;28;20017;-70
2022/12/17 19:22:38;;;;;;;;;;;-3.90;99.90;;;;;;5068033;28;20043;-71
2022/12/17 19:25:05;;;;;;;;;;;-3.80;99.90;;;;;;5063437;28;20010;-73
2022/12/17 19:27:32;;;;;;;;;;;-3.80;99.90;;;;;;5066961;28;19932;-71
2022/12/17 19:29:58;;;;;;;;;;;-3.90;99.90;;;;;;5064356;28;19928;-72
2022/12/17 19:32:25;;;;;;;;;;;-3.80;99.90;;;;;;5067284;28;19938;-73
2022/12/17 19:34:52;;;;;;;;;;;-3.80;99.90;;;;;;5065475;28;20299;-71
2022/12/17 19:37:20;;;;;;;;;;;-3.70;99.90;;;;;;5064893;28;19928;-71
2022/12/17 19:39:47;;;;;;;;;;;-3.70;99.90;;;;;;5067200;28;20011;-72
2022/12/17 19:42:24;;;;;;;;;;;-3.70;99.90;;;;;;5067026;28;19932;-71
2022/12/17 19:44:50;;;;;;;;;;;-3.80;99.90;;;;;;5066729;28;19940;-71
2022/12/17 19:47:17;;;;;;;;;;;-3.80;99.90;;;;;;5069952;28;20417;-72
2022/12/17 19:49:44;;;;;;;;;;;-3.80;99.90;;;;;;5067722;28;19967;-72
2022/12/17 19:52:10;;;;;;;;;;;-3.80;99.90;;;;;;5069022;28;19924;-71
2022/12/17 19:54:38;;;;;;;;;;;-3.80;99.90;;;;;;5063473;28;20984;-70
2022/12/17 19:57:05;;;;;;;;;;;-4.00;99.90;;;;;;5067732;28;20448;-71
2022/12/17 19:59:32;;;;;;;;;;;-4.00;99.90;;;;;;5067261;28;20043;-73
2022/12/17 20:02:02;;;;;;;;;;;-4.10;99.90;;;;;;5068348;28;19938;-72
2022/12/17 20:04:29;;;;;;;;;;;-4.10;99.90;;;;;;5067860;28;20231;-72
2022/12/17 20:06:56;;;;;;;;;;;-4.10;99.90;;;;;;5065945;28;19932;-73
2022/12/17 20:09:22;;;;;;;;;;;-4.10;99.90;;;;;;5067232;28;20029;-73
2022/12/17 20:11:50;;;;;;;;;;;-4.10;99.90;;;;;;5067319;28;19997;-71
2022/12/17 20:14:19;;;;;;;;;;;-4.10;99.90;;;;;;5067610;28;19932;-72
2022/12/17 20:16:47;;;;;;;;;;;-4.00;99.90;;;;;;5069885;28;19933;-71
2022/12/17 20:19:15;;;;;;;;;;;-4.00;99.90;;;;;;5068795;28;19964;-71
2022/12/17 20:21:42;;;;;;;;;;;-4.00;99.90;;;;;;5069939;28;19930;-72
2022/12/17 20:24:10;;;;;;;;;;;-3.90;99.90;;;;;;5069309;28;19986;-72
2022/12/17 20:26:36;;;;;;;;;;;-4.00;99.90;;;;;;5069997;28;19960;-73
2022/12/17 20:29:05;;;;;;;;;;;-4.00;99.90;;;;;;5068315;28;19939;-72
2022/12/17 20:31:32;;;;;;;;;;;-4.10;99.90;;;;;;5068094;28;20027;-72
2022/12/17 20:33:59;;;;;;;;;;;-4.20;99.90;;;;;;5067512;28;20414;-73
2022/12/17 20:36:26;;;;;;;;;;;-4.30;99.90;;;;;;5068473;28;20285;-72
2022/12/17 20:38:53;;;;;;;;;;;-4.30;99.90;;;;;;5067936;28;19931;-72
2022/12/17 20:41:21;;;;;;;;;;;-4.30;99.90;;;;;;5067088;28;19933;-73
2022/12/17 20:43:48;;;;;;;;;;;-4.30;99.90;;;;;;5068130;28;19935;-72
2022/12/17 20:46:17;;;;;;;;;;;-4.30;99.90;;;;;;5070475;28;19991;-72
2022/12/17 20:48:44;;;;;;;;;;;-4.40;99.90;;;;;;5065810;28;19928;-73
2022/12/17 20:51:12;;;;;;;;;;;-4.30;99.90;;;;;;5063699;28;19988;-72
2022/12/17 20:53:39;;;;;;;;;;;-4.30;99.90;;;;;;5064942;28;19958;-73
2022/12/17 20:56:07;;;;;;;;;;;-4.40;99.90;;;;;;5066236;28;20012;-73
2022/12/17 20:58:34;;;;;;;;;;;-4.50;99.90;;;;;;5066013;28;19960;-73
2022/12/17 21:01:05;;;;;;;;;;;-4.50;99.90;;;;;;5065555;28;20019;-73
2022/12/17 21:03:33;;;;;;;;;;;-4.50;99.90;;;;;;5064351;28;19959;-72
2022/12/17 21:06:07;;;;;;;;;;;-4.50;99.90;;;;;;5065089;28;20005;-72
2022/12/17 21:08:34;;;;;;;;;;;-4.50;99.90;;;;;;5064205;28;20539;-72
2022/12/17 21:11:01;;;;;;;;;;;-4.50;99.90;;;;;;5062505;28;19932;-72
2022/12/17 21:13:30;;;;;;;;;;;-4.50;99.90;;;;;;5062172;28;19938;-73
2022/12/17 21:15:57;;;;;;;;;;;-4.40;99.90;;;;;;5064430;28;19939;-72
2022/12/17 21:18:24;;;;;;;;;;;-4.40;99.90;;;;;;5065498;28;19932;-72
2022/12/17 21:20:56;;;;;;;;;;;-4.50;99.90;;;;;;5064640;28;19932;-72
2022/12/17 21:23:23;;;;;;;;;;;-4.50;99.90;;;;;;5059218;28;19935;-72
2022/12/17 21:25:56;;;;;;;;;;;-4.50;99.90;;;;;;5064349;28;20302;-73
2022/12/17 21:28:23;;;;;;;;;;;-4.50;99.90;;;;;;5062249;28;20201;-73
2022/12/17 21:30:50;;;;;;;;;;;-4.50;99.90;;;;;;5062814;28;19924;-72
2022/12/17 21:33:17;;;;;;;;;;;-4.60;99.90;;;;;;5066206;28;19934;-73
2022/12/17 21:35:43;;;;;;;;;;;-4.60;99.90;;;;;;5065952;28;19933;-72
2022/12/17 21:38:11;;;;;;;;;;;-4.60;99.90;;;;;;5065871;28;19924;-73
2022/12/17 21:40:38;;;;;;;;;;;-4.60;99.90;;;;;;5068807;28;19932;-74
2022/12/17 21:43:05;;;;;;;;;;;-4.50;99.90;;;;;;5068167;28;19928;-73
2022/12/17 21:45:38;;;;;;;;;;;-4.50;99.90;;;;;;5070442;28;19932;-73
2022/12/17 21:48:05;;;;;;;;;;;-4.40;99.90;;;;;;5070156;28;20375;-72
2022/12/17 21:50:31;;;;;;;;;;;-4.30;99.90;;;;;;5068748;28;19932;-72
2022/12/17 21:52:58;;;;;;;;;;;-4.30;99.90;;;;;;5070960;28;19931;-71
2022/12/17 21:55:27;;;;;;;;;;;-4.40;99.90;;;;;;5066769;28;19961;-72
2022/12/17 21:57:53;;;;;;;;;;;-4.50;99.90;;;;;;5069485;28;19939;-72
2022/12/17 22:00:20;;;;;;;;;;;-4.60;99.90;;;;;;5068550;28;19928;-73
2022/12/17 22:02:47;;;;;;;;;;;-4.60;99.90;;;;;;5068061;28;20430;-72
2022/12/17 22:05:14;;;;;;;;;;;-4.60;99.90;;;;;;5067897;28;19928;-72
2022/12/17 22:07:41;;;;;;;;;;;-4.60;99.90;;;;;;5067498;28;20001;-72
2022/12/17 22:10:08;;;;;;;;;;;-4.60;99.90;;;;;;5066583;28;19969;-71
2022/12/17 22:15:20;;;;;;;;;;;-4.60;99.90;;;;;;5068216;28;20009;-71
2022/12/17 22:17:47;;;;;;;;;;;-4.60;99.90;;;;;;5068662;28;19970;-72
2022/12/17 22:20:15;;;;;;;;;;;-4.70;99.90;;;;;;5071063;28;20020;-72
2022/12/17 22:22:41;;;;;;;;;;;-4.80;99.90;;;;;;5069606;28;19981;-72
2022/12/17 22:25:09;;;;;;;;;;;-4.80;99.90;;;;;;5066957;28;19931;-72
2022/12/17 22:27:37;;;;;;;;;;;-4.80;99.90;;;;;;5066083;28;19928;-73
2022/12/17 22:33:01;;;;;;;;;;;-4.90;99.90;;;;;;5067008;28;19969;-72
2022/12/17 22:35:30;;;;;;;;;;;-4.90;99.90;;;;;;5065278;28;19928;-72
2022/12/17 22:37:57;;;;;;;;;;;-4.90;99.90;;;;;;5067518;28;20413;-71
2022/12/17 22:40:26;;;;;;;;;;;-5.00;99.90;;;;;;5066984;28;20197;-72
2022/12/17 22:45:38;;;;;;;;;;;-5.00;99.90;;;;;;5067620;28;19935;-73
2022/12/17 22:48:05;;;;;;;;;;;-5.00;99.90;;;;;;5065744;28;19939;-72
2022/12/17 22:50:33;;;;;;;;;;;-5.00;99.90;;;;;;5070839;28;19932;-76
2022/12/17 22:53:00;;;;;;;;;;;-5.10;99.90;;;;;;5067158;28;19932;-72
2022/12/17 22:55:27;;;;;;;;;;;-5.10;99.90;;;;;;5062905;28;20425;-71
2022/12/17 22:57:56;;;;;;;;;;;-5.10;99.90;;;;;;5065476;28;20347;-74
2022/12/17 23:00:23;;;;;;;;;;;-5.20;99.90;;;;;;5065094;28;20437;-72
2022/12/17 23:02:51;;;;;;;;;;;-5.20;99.90;;;;;;5066466;28;19932;-71
2022/12/17 23:05:18;;;;;;;;;;;-5.20;99.90;;;;;;5067628;28;19932;-72
2022/12/17 23:07:45;;;;;;;;;;;-5.20;99.90;;;;;;5067952;28;19932;-72
2022/12/17 23:10:12;;;;;;;;;;;-5.30;99.90;;;;;;5065242;28;19931;-72
2022/12/17 23:12:51;;;;;;;;;;;-5.30;99.90;;;;;;5066594;28;20026;-75
2022/12/17 23:15:20;;;;;;;;;;;-5.30;99.90;;;;;;5067657;28;19932;-75
2022/12/17 23:17:47;;;;;;;;;;;-5.30;99.90;;;;;;5067261;28;20064;-75
2022/12/17 23:20:14;;;;;;;;;;;-5.40;99.90;;;;;;5065293;28;19928;-74
2022/12/17 23:22:41;;;;;;;;;;;-5.40;99.90;;;;;;5069162;28;19932;-72
2022/12/17 23:25:08;;;;;;;;;;;-5.30;99.90;;;;;;5067805;28;20365;-72
2022/12/17 23:27:34;;;;;;;;;;;-5.30;99.90;;;;;;5072236;28;20342;-73
2022/12/17 23:30:01;;;;;;;;;;;-5.30;99.90;;;;;;5071385;28;20342;-73
2022/12/17 23:32:30;;;;;;;;;;;-5.40;99.90;;;;;;5069520;28;20028;-73
2022/12/17 23:34:56;;;;;;;;;;;-5.40;99.90;;;;;;5070315;28;20081;-75
2022/12/17 23:37:23;;;;;;;;;;;-5.40;99.90;;;;;;5069684;28;19928;-76
2022/12/17 23:39:50;;;;;;;;;;;-5.40;99.90;;;;;;5068480;28;19939;-73
2022/12/17 23:42:16;;;;;;;;;;;-5.40;99.90;;;;;;5071759;28;19932;-74
2022/12/17 23:44:44;;;;;;;;;;;-5.40;99.90;;;;;;5067576;28;20444;-75
2022/12/17 23:47:11;;;;;;;;;;;-5.40;99.90;;;;;;5068635;28;19924;-74
2022/12/17 23:49:39;;;;;;;;;;;-5.40;99.90;;;;;;5066911;28;19928;-75
2022/12/17 23:52:06;;;;;;;;;;;-5.50;99.90;;;;;;5067329;28;20015;-76
2022/12/17 23:54:32;;;;;;;;;;;-5.50;99.90;;;;;;5068337;28;19936;-73
2022/12/17 23:56:59;;;;;;;;;;;-5.50;99.90;;;;;;5067725;28;20470;-75
2022/12/17 23:59:26;;;;;;;;;;;-5.60;99.90;;;;;;5070627;28;20387;-77
